Time;durP1;ratioP1;P1;durP2;ratioP2;P2;SDS_P1;SDS_P2;PMS_P1;PMS_P2;Temp;Humidity;BMP_temperature;BMP_pressure;BME280_temperature;BME280_humidity;BME280_pressure;Samples;Min_cycle;Max_cycle;Signal;HPM_P1;HPM_P2
2022/10/18 00:02:00;;;;;;;8.85;8.02;;;17.80;99.90;;;;;;5112347;28;20172;-76
2022/10/18 00:04:26;;;;;;;9.32;8.43;;;17.80;99.90;;;;;;5112752;28;20175;-75
2022/10/18 00:06:51;;;;;;;9.95;8.27;;;17.70;99.90;;;;;;5111619;28;20163;-76
2022/10/18 00:09:17;;;;;;;9.70;8.68;;;17.70;99.90;;;;;;5112540;28;20175;-76
2022/10/18 00:11:43;;;;;;;10.18;9.18;;;17.80;99.90;;;;;;5112725;28;20216;-77
2022/10/18 00:14:09;;;;;;;12.05;8.75;;;17.70;99.90;;;;;;5112733;28;20168;-76
2022/10/18 00:16:34;;;;;;;9.95;8.95;;;17.70;99.90;;;;;;5112319;28;20203;-76
2022/10/18 00:19:00;;;;;;;10.43;9.20;;;17.60;99.90;;;;;;5112790;28;20195;-75
2022/10/18 00:21:26;;;;;;;10.98;9.02;;;17.60;99.90;;;;;;5112450;28;20167;-76
2022/10/18 00:23:52;;;;;;;9.85;8.85;;;17.60;99.90;;;;;;5112533;28;20162;-76
2022/10/18 00:26:23;;;;;;;10.88;8.10;;;17.50;99.90;;;;;;5112544;28;20619;-77
2022/10/18 00:28:57;;;;;;;11.88;8.43;;;17.50;99.90;;;;;;5112449;28;20202;-77
2022/10/18 00:31:26;;;;;;;9.90;8.93;;;17.60;99.90;;;;;;5099483;28;158553;-77
2022/10/18 00:33:54;;;;;;;10.07;9.10;;;17.70;99.90;;;;;;5102661;28;20233;-77
2022/10/18 00:36:20;;;;;;;12.57;10.35;;;17.60;99.90;;;;;;5113194;28;20237;-76
2022/10/18 00:38:46;;;;;;;10.43;9.43;;;17.60;99.90;;;;;;5113454;28;20638;-77
2022/10/18 00:41:15;;;;;;;13.27;9.40;;;17.60;99.90;;;;;;5113275;28;20618;-76
2022/10/18 00:44:03;;;;;;;9.88;8.70;;;17.80;99.90;;;;;;5113293;28;20172;-76
2022/10/18 00:46:31;;;;;;;12.77;8.95;;;17.80;99.90;;;;;;5113275;28;20676;-77
2022/10/18 00:49:00;;;;;;;10.30;8.88;;;17.90;99.90;;;;;;5113140;28;20215;-77
2022/10/18 00:51:38;;;;;;;10.40;9.38;;;17.90;99.90;;;;;;5113342;28;20171;-75
2022/10/18 00:54:04;;;;;;;10.13;9.02;;;17.80;99.90;;;;;;5113295;28;20183;-76
2022/10/18 00:56:32;;;;;;;9.95;9.05;;;17.80;99.90;;;;;;5113072;28;20229;-74
2022/10/18 00:58:58;;;;;;;9.88;8.93;;;17.80;99.90;;;;;;5112726;28;20240;-74
2022/10/18 01:01:23;;;;;;;9.57;8.52;;;17.70;99.90;;;;;;5112823;28;20623;-77
2022/10/18 01:03:51;;;;;;;11.40;9.90;;;17.70;99.90;;;;;;5113154;28;20164;-77
2022/10/18 01:06:16;;;;;;;12.70;8.95;;;17.80;99.90;;;;;;5113040;28;20188;-76
2022/10/18 01:08:57;;;;;;;11.75;9.27;;;17.80;99.90;;;;;;5113063;28;20171;-75
2022/10/18 01:11:44;;;;;;;10.77;9.55;;;17.80;99.90;;;;;;5113018;28;20159;-77
2022/10/18 01:14:40;;;;;;;10.48;8.98;;;17.70;99.90;;;;;;5113133;28;20534;-76
2022/10/18 01:17:30;;;;;;;10.43;9.43;;;17.70;99.90;;;;;;5113779;28;20206;-76
2022/10/18 01:20:18;;;;;;;11.80;9.45;;;17.60;99.90;;;;;;5116573;28;20163;-77
2022/10/18 01:22:49;;;;;;;9.80;8.88;;;17.70;99.90;;;;;;5116514;28;20174;-77
2022/10/18 01:25:39;;;;;;;9.93;8.93;;;17.60;99.90;;;;;;5116707;28;20201;-76
2022/10/18 01:28:13;;;;;;;10.63;9.40;;;17.60;99.90;;;;;;5116335;28;20221;-76
2022/10/18 01:30:54;;;;;;;13.35;9.75;;;17.70;99.90;;;;;;5116342;28;20183;-76
2022/10/18 01:33:40;;;;;;;11.10;10.00;;;17.70;99.90;;;;;;5116450;28;20190;-76
2022/10/18 01:36:21;;;;;;;14.50;9.40;;;17.70;99.90;;;;;;5116299;28;20210;-76
2022/10/18 01:38:50;;;;;;;10.23;9.00;;;17.70;99.90;;;;;;5116347;28;20194;-76
2022/10/18 01:41:19;;;;;;;10.63;9.55;;;17.60;99.90;;;;;;5116194;28;20160;-76
2022/10/18 01:43:47;;;;;;;15.65;9.77;;;17.70;99.90;;;;;;5115912;28;20665;-76
2022/10/18 01:46:18;;;;;;;11.65;10.48;;;17.70;99.90;;;;;;5116259;28;20171;-75
2022/10/18 01:48:45;;;;;;;10.57;9.45;;;17.80;99.90;;;;;;5116340;28;20171;-77
2022/10/18 01:51:11;;;;;;;10.70;9.80;;;17.70;99.90;;;;;;5116023;28;20213;-77
2022/10/18 01:53:37;;;;;;;10.73;9.70;;;17.70;99.90;;;;;;5097670;28;20175;-76
2022/10/18 01:56:02;;;;;;;11.55;10.05;;;17.60;99.90;;;;;;5115908;28;20167;-76
2022/10/18 01:58:35;;;;;;;11.75;10.32;;;17.40;99.90;;;;;;5115825;28;20196;-76
2022/10/18 02:01:21;;;;;;;11.30;9.55;;;17.50;99.90;;;;;;5116087;28;20259;-76
2022/10/18 02:03:49;;;;;;;11.43;9.95;;;17.40;99.90;;;;;;5115811;28;20529;-76
2022/10/18 02:06:31;;;;;;;13.30;10.32;;;17.40;99.90;;;;;;5115917;28;20254;-76
2022/10/18 02:09:30;;;;;;;13.10;10.20;;;17.40;99.90;;;;;;5115979;28;20163;-76
2022/10/18 02:11:57;;;;;;;11.73;10.55;;;17.50;99.90;;;;;;5081568;28;20175;-76
2022/10/18 02:14:24;;;;;;;11.82;10.50;;;17.60;99.90;;;;;;5115690;28;20198;-76
2022/10/18 02:16:55;;;;;;;12.88;11.07;;;17.60;99.90;;;;;;5115624;28;20204;-76
2022/10/18 02:19:32;;;;;;;13.38;11.40;;;17.60;99.90;;;;;;5115422;28;20220;-75
2022/10/18 02:21:58;;;;;;;11.95;10.48;;;17.70;99.90;;;;;;5115379;28;20568;-76
2022/10/18 02:24:30;;;;;;;11.77;10.32;;;17.70;99.90;;;;;;5115346;28;20201;-75
2022/10/18 02:26:56;;;;;;;14.38;10.77;;;17.80;99.90;;;;;;5115165;28;20232;-76
2022/10/18 02:29:22;;;;;;;12.93;10.23;;;17.80;99.90;;;;;;5114410;28;20631;-75
2022/10/18 02:31:49;;;;;;;14.45;10.98;;;17.70;99.90;;;;;;5115023;28;20591;-76
2022/10/18 02:34:59;;;;;;;14.85;11.02;;;17.70;99.90;;;;;;5115400;28;20629;-75
2022/10/18 02:37:31;;;;;;;16.17;10.82;;;17.80;99.90;;;;;;5012534;28;20255;-75
2022/10/18 02:39:57;;;;;;;12.93;11.68;;;17.70;99.90;;;;;;5012441;28;20678;-75
2022/10/18 02:42:22;;;;;;;13.10;11.52;;;17.70;99.90;;;;;;5012491;28;20206;-76
2022/10/18 02:44:48;;;;;;;13.70;11.70;;;17.60;99.90;;;;;;5012725;28;20175;-75
2022/10/18 02:47:14;;;;;;;16.50;13.35;;;17.70;99.90;;;;;;5012682;28;20612;-75
2022/10/18 02:49:39;;;;;;;12.40;11.13;;;17.70;99.90;;;;;;5012480;28;20174;-76
2022/10/18 02:52:05;;;;;;;14.95;12.18;;;17.70;99.90;;;;;;4995818;28;20682;-75
2022/10/18 02:54:30;;;;;;;13.60;11.93;;;17.60;99.90;;;;;;5012375;28;20214;-76
2022/10/18 02:56:56;;;;;;;13.13;11.82;;;17.70;99.90;;;;;;5012183;28;20284;-76
2022/10/18 02:59:21;;;;;;;14.65;12.80;;;17.60;99.90;;;;;;5012410;28;20609;-75
2022/10/18 03:01:47;;;;;;;13.43;12.00;;;17.70;99.90;;;;;;5012253;28;20187;-75
2022/10/18 03:04:13;;;;;;;16.13;12.80;;;17.60;99.90;;;;;;5011952;28;20666;-75
2022/10/18 03:06:38;;;;;;;17.02;13.77;;;17.70;99.90;;;;;;5012209;28;20670;-75
2022/10/18 03:09:05;;;;;;;14.20;12.70;;;17.70;99.90;;;;;;5011863;28;20191;-77
2022/10/18 03:11:31;;;;;;;15.73;13.18;;;17.60;99.90;;;;;;5012215;28;20701;-75
2022/10/18 03:13:56;;;;;;;14.82;12.88;;;17.60;99.90;;;;;;5080669;28;20190;-76
2022/10/18 03:16:22;;;;;;;16.35;12.93;;;17.60;99.90;;;;;;5096034;28;20206;-77
2022/10/18 03:18:48;;;;;;;15.55;12.70;;;17.50;99.90;;;;;;5114204;28;20288;-76
2022/10/18 03:21:13;;;;;;;17.65;14.27;;;17.40;99.90;;;;;;5113774;28;20390;-76
2022/10/18 03:23:41;;;;;;;16.80;14.23;;;17.40;99.90;;;;;;5095159;28;20535;-75
2022/10/18 03:26:06;;;;;;;17.85;15.10;;;17.50;99.90;;;;;;5095948;28;20170;-75
2022/10/18 03:28:32;;;;;;;21.65;17.95;;;17.60;99.90;;;;;;5114116;28;20220;-75
2022/10/18 03:31:02;;;;;;;23.55;17.83;;;17.60;99.90;;;;;;5095327;28;20573;-75
2022/10/18 03:33:29;;;;;;;25.75;17.77;;;17.60;99.90;;;;;;5113957;28;20623;-75
2022/10/18 03:35:54;;;;;;;23.33;17.98;;;17.70;99.90;;;;;;5114003;28;20201;-75
2022/10/18 03:38:20;;;;;;;27.85;19.50;;;17.70;99.90;;;;;;5095344;28;20487;-75
2022/10/18 03:40:46;;;;;;;25.00;20.10;;;17.70;99.90;;;;;;5113273;28;20167;-75
2022/10/18 03:43:11;;;;;;;23.50;20.23;;;17.80;99.90;;;;;;5113717;28;20171;-75
2022/10/18 03:45:37;;;;;;;26.42;20.30;;;17.80;99.90;;;;;;5113577;28;20171;-75
2022/10/18 03:48:03;;;;;;;25.70;19.75;;;17.70;99.90;;;;;;5113500;28;20210;-75
2022/10/18 03:50:28;;;;;;;23.83;19.95;;;17.70;99.90;;;;;;5113830;28;20280;-75
2022/10/18 03:52:54;;;;;;;24.63;20.42;;;17.60;99.90;;;;;;5113287;28;20171;-75
2022/10/18 03:55:20;;;;;;;26.60;20.50;;;17.60;99.90;;;;;;5113041;28;20680;-75
2022/10/18 03:57:46;;;;;;;23.77;19.88;;;17.70;99.90;;;;;;5095270;28;20218;-76
2022/10/18 04:00:11;;;;;;;25.13;19.73;;;17.70;99.90;;;;;;5094853;28;20167;-75
2022/10/18 04:02:37;;;;;;;22.17;19.38;;;17.70;99.90;;;;;;5112892;28;20518;-75
2022/10/18 04:05:03;;;;;;;24.00;19.83;;;17.70;99.90;;;;;;5113252;28;20646;-75
2022/10/18 04:07:29;;;;;;;25.70;20.02;;;17.60;99.90;;;;;;5094481;28;20195;-75
2022/10/18 04:09:54;;;;;;;26.10;19.93;;;17.60;99.90;;;;;;5113041;28;20175;-75
2022/10/18 04:12:20;;;;;;;25.58;18.92;;;17.60;99.90;;;;;;5113093;28;20250;-75
2022/10/18 04:14:45;;;;;;;21.77;19.30;;;17.60;99.90;;;;;;5112952;28;20600;-74
2022/10/18 04:17:11;;;;;;;24.02;18.83;;;17.60;99.90;;;;;;5113062;28;20210;-75
2022/10/18 04:19:37;;;;;;;25.67;19.67;;;17.60;99.90;;;;;;5113369;28;20517;-76
2022/10/18 04:22:02;;;;;;;24.92;18.90;;;17.60;99.90;;;;;;5112789;28;20294;-76
2022/10/18 04:24:28;;;;;;;21.80;17.58;;;17.60;99.90;;;;;;5114330;28;20168;-76
2022/10/18 04:26:53;;;;;;;22.58;17.90;;;17.40;99.90;;;;;;5094875;28;20174;-75
2022/10/18 04:29:19;;;;;;;21.40;17.40;;;17.30;99.90;;;;;;5113615;28;20199;-76
2022/10/18 04:31:44;;;;;;;22.42;17.52;;;17.40;99.90;;;;;;5112173;28;20293;-76
2022/10/18 04:34:10;;;;;;;27.98;18.02;;;17.30;99.90;;;;;;5112953;28;20224;-76
2022/10/18 04:36:36;;;;;;;22.63;18.38;;;17.40;99.90;;;;;;5112598;28;20187;-75
2022/10/18 04:39:01;;;;;;;21.40;17.52;;;17.30;99.90;;;;;;5112795;28;20530;-75
2022/10/18 04:41:27;;;;;;;21.53;17.67;;;17.40;99.90;;;;;;5112775;28;20202;-75
2022/10/18 04:43:52;;;;;;;22.55;17.38;;;17.50;99.90;;;;;;5112826;28;20179;-75
2022/10/18 04:46:18;;;;;;;24.88;17.48;;;17.40;99.90;;;;;;5112720;28;20175;-76
2022/10/18 04:48:43;;;;;;;22.88;17.23;;;17.40;99.90;;;;;;5095219;28;20587;-76
2022/10/18 04:51:09;;;;;;;26.15;17.77;;;17.20;99.90;;;;;;5111595;28;20168;-75
2022/10/18 04:53:34;;;;;;;22.10;17.05;;;17.00;99.90;;;;;;5115566;28;20254;-75
2022/10/18 04:56:00;;;;;;;24.23;16.95;;;17.00;99.90;;;;;;5116557;28;20635;-77
2022/10/18 04:58:26;;;;;;;22.23;16.23;;;17.00;99.90;;;;;;5116981;28;20297;-74
2022/10/18 05:00:52;;;;;;;22.58;16.92;;;17.00;99.90;;;;;;5116683;28;20278;-76
2022/10/18 05:03:18;;;;;;;21.63;16.90;;;17.10;99.90;;;;;;5116187;28;20681;-77
2022/10/18 05:05:44;;;;;;;19.80;16.58;;;17.10;99.90;;;;;;5116171;28;20179;-76
2022/10/18 05:08:10;;;;;;;23.35;16.25;;;17.10;99.90;;;;;;5116107;28;20176;-76
2022/10/18 05:10:36;;;;;;;21.63;16.55;;;17.00;99.90;;;;;;5116385;28;20228;-76
2022/10/18 05:13:02;;;;;;;23.48;17.13;;;17.10;99.90;;;;;;5115705;28;20171;-77
2022/10/18 05:15:28;;;;;;;22.77;16.70;;;17.00;99.90;;;;;;5115878;28;20583;-75
2022/10/18 05:17:53;;;;;;;24.38;17.10;;;17.00;99.90;;;;;;5116379;28;20213;-76
2022/10/18 05:20:19;;;;;;;24.27;16.77;;;17.00;99.90;;;;;;5115195;28;20607;-76
2022/10/18 05:22:44;;;;;;;22.95;16.25;;;16.90;99.90;;;;;;5115365;28;20537;-77
2022/10/18 05:25:10;;;;;;;23.45;16.85;;;16.80;99.90;;;;;;5097937;28;20175;-75
2022/10/18 05:27:36;;;;;;;21.03;16.63;;;16.70;99.90;;;;;;5115032;28;20172;-77
2022/10/18 05:30:02;;;;;;;20.75;17.50;;;16.80;99.90;;;;;;5115440;28;20187;-77
2022/10/18 05:32:27;;;;;;;23.97;18.23;;;16.90;99.90;;;;;;5114770;28;20295;-76
2022/10/18 05:34:53;;;;;;;23.17;17.73;;;16.80;99.90;;;;;;5114910;28;20635;-76
2022/10/18 05:37:20;;;;;;;25.05;18.13;;;16.90;99.90;;;;;;5113383;28;20296;-77
2022/10/18 05:39:46;;;;;;;22.02;18.00;;;16.80;99.90;;;;;;5114265;28;20610;-75
2022/10/18 05:42:11;;;;;;;29.80;18.63;;;16.80;99.90;;;;;;5114542;28;20262;-76
2022/10/18 05:44:37;;;;;;;23.50;17.65;;;16.80;99.90;;;;;;5114438;28;20155;-75
2022/10/18 05:47:02;;;;;;;22.15;17.80;;;16.60;99.90;;;;;;5096880;28;20171;-75
2022/10/18 05:49:28;;;;;;;24.98;19.02;;;16.60;99.90;;;;;;5114105;28;20622;-76
2022/10/18 05:51:54;;;;;;;24.10;18.77;;;16.60;99.90;;;;;;5114086;28;20172;-76
2022/10/18 05:54:19;;;;;;;26.83;19.77;;;16.60;99.90;;;;;;5114977;28;20273;-75
2022/10/18 05:56:46;;;;;;;28.00;19.83;;;16.60;99.90;;;;;;5113331;28;20206;-78
2022/10/18 05:59:12;;;;;;;26.80;20.00;;;16.80;99.90;;;;;;5095318;28;20198;-76
2022/10/18 06:01:39;;;;;;;25.98;19.55;;;16.70;99.90;;;;;;5113909;28;20574;-75
2022/10/18 06:04:05;;;;;;;26.73;19.67;;;16.60;99.90;;;;;;5113741;28;20166;-77
2022/10/18 06:06:32;;;;;;;33.03;20.70;;;16.60;99.90;;;;;;5095421;28;20171;-75
2022/10/18 06:08:58;;;;;;;27.70;20.07;;;16.60;99.90;;;;;;5095404;28;20171;-78
2022/10/18 06:11:24;;;;;;;25.70;19.67;;;16.60;99.90;;;;;;5113379;28;20608;-76
2022/10/18 06:13:51;;;;;;;33.53;21.47;;;16.60;99.90;;;;;;5113845;28;20179;-77
2022/10/18 06:16:19;;;;;;;32.13;21.20;;;16.60;99.90;;;;;;5113936;28;20211;-76
2022/10/18 06:18:50;;;;;;;34.17;21.83;;;16.70;99.90;;;;;;5113156;28;20288;-78
2022/10/18 06:21:16;;;;;;;31.30;20.87;;;16.70;99.90;;;;;;5112402;28;20174;-78
2022/10/18 06:23:42;;;;;;;26.60;17.73;;;16.80;99.90;;;;;;5112022;28;20257;-79
2022/10/18 06:26:10;;;;;;;26.27;18.63;;;16.90;99.90;;;;;;5111465;28;20619;-78
2022/10/18 06:28:36;;;;;;;28.98;18.40;;;16.80;99.90;;;;;;5112368;28;20179;-78
2022/10/18 06:31:04;;;;;;;34.00;20.70;;;16.60;99.90;;;;;;5092583;28;20229;-78
2022/10/18 06:33:30;;;;;;;27.90;19.13;;;16.60;99.90;;;;;;5111011;28;20179;-79
2022/10/18 06:36:02;;;;;;;27.15;17.50;;;16.70;99.90;;;;;;5110003;28;20244;-78
2022/10/18 06:38:28;;;;;;;22.50;16.05;;;16.80;99.90;;;;;;5109758;28;20178;-78
2022/10/18 06:40:55;;;;;;;24.77;17.27;;;16.80;99.90;;;;;;5111648;28;20171;-78
2022/10/18 06:43:20;;;;;;;29.13;18.58;;;16.90;99.90;;;;;;5111821;28;20220;-78
2022/10/18 06:45:46;;;;;;;23.47;16.07;;;17.00;99.90;;;;;;5113453;28;20255;-75
2022/10/18 06:48:12;;;;;;;20.30;12.77;;;16.90;99.90;;;;;;5112856;28;20570;-78
2022/10/18 06:50:37;;;;;;;26.02;12.43;;;16.90;99.90;;;;;;5112765;28;20228;-77
2022/10/18 06:53:05;;;;;;;18.60;9.10;;;16.70;99.90;;;;;;5094328;28;20213;-79
2022/10/18 06:55:30;;;;;;;14.98;9.52;;;16.60;99.90;;;;;;5092050;28;20178;-76
2022/10/18 06:57:56;;;;;;;22.23;11.55;;;16.70;99.90;;;;;;5111739;28;20259;-78
2022/10/18 07:00:22;;;;;;;24.73;11.80;;;16.80;99.90;;;;;;5111638;28;20260;-79
2022/10/18 07:02:48;;;;;;;17.33;10.00;;;16.90;99.90;;;;;;5112450;28;20547;-78
2022/10/18 07:05:13;;;;;;;17.48;10.30;;;17.00;99.90;;;;;;5112050;28;20595;-76
2022/10/18 07:07:39;;;;;;;15.10;9.15;;;17.10;99.90;;;;;;5112518;28;20659;-77
2022/10/18 07:10:05;;;;;;;15.80;8.00;;;17.20;99.90;;;;;;5112777;28;20182;-79
2022/10/18 07:12:31;;;;;;;22.55;10.35;;;16.90;99.90;;;;;;5110378;28;20190;-81
2022/10/18 07:15:00;;;;;;;17.42;9.88;;;16.90;99.90;;;;;;5118955;27;20216;-82
2022/10/18 07:17:26;;;;;;;20.67;10.02;;;17.10;99.90;;;;;;5132135;27;20591;-81
2022/10/18 07:19:52;;;;;;;22.15;10.07;;;17.10;99.90;;;;;;5129355;27;20178;-77
2022/10/18 07:22:18;;;;;;;15.18;9.25;;;17.10;99.90;;;;;;5126525;27;20549;-79
2022/10/18 07:24:43;;;;;;;15.30;10.03;;;17.10;99.90;;;;;;5113145;28;20275;-82
2022/10/18 07:27:09;;;;;;;18.83;10.80;;;16.90;99.90;;;;;;5115655;27;20179;-81
2022/10/18 07:29:37;;;;;;;18.88;11.15;;;17.00;99.90;;;;;;5097848;27;20198;-80
2022/10/18 07:32:03;;;;;;;21.30;11.45;;;17.30;99.90;;;;;;5098354;28;20228;-82
2022/10/18 07:34:28;;;;;;;24.58;11.70;;;17.40;99.90;;;;;;5091165;28;20508;-82
2022/10/18 07:36:54;;;;;;;26.85;12.27;;;17.80;99.90;;;;;;5092079;28;20310;-78
2022/10/18 07:39:20;;;;;;;23.85;11.73;;;18.10;99.90;;;;;;5105508;28;20536;-77
2022/10/18 07:41:45;;;;;;;22.35;11.25;;;18.80;99.90;;;;;;5093608;28;20179;-80
2022/10/18 07:44:11;;;;;;;24.25;14.10;;;19.50;99.90;;;;;;5111468;28;20187;-81
2022/10/18 07:46:36;;;;;;;22.33;11.27;;;20.40;99.90;;;;;;5110186;28;20173;-81
2022/10/18 07:49:02;;;;;;;23.35;9.95;;;22.00;99.90;;;;;;5092513;28;20644;-83
2022/10/18 07:51:31;;;;;;;14.93;8.88;;;23.70;99.90;;;;;;5119079;27;20187;-79
2022/10/18 07:53:59;;;;;;;16.63;8.73;;;25.40;99.90;;;;;;5100775;28;20179;-79
2022/10/18 07:56:25;;;;;;;20.02;8.77;;;26.40;99.90;;;;;;5095134;28;20249;-80
2022/10/18 07:58:53;;;;;;;13.85;7.53;;;26.60;99.90;;;;;;5104758;28;20588;-80
2022/10/18 08:01:20;;;;;;;16.42;8.60;;;26.50;98.80;;;;;;5096671;28;20188;-82
2022/10/18 08:03:46;;;;;;;13.40;7.95;;;26.70;99.00;;;;;;5097639;28;20666;-82
2022/10/18 08:06:15;;;;;;;19.23;8.10;;;25.70;99.90;;;;;;5107107;28;20179;-77
2022/10/18 08:08:41;;;;;;;9.40;5.55;;;25.50;99.90;;;;;;5102628;28;20261;-80
2022/10/18 08:11:12;;;;;;;18.30;7.20;;;25.40;99.90;;;;;;5098805;28;20603;-80
2022/10/18 08:13:38;;;;;;;17.35;5.88;;;25.50;99.90;;;;;;5102968;28;20182;-81
2022/10/18 08:16:10;;;;;;;18.75;5.90;;;25.80;98.80;;;;;;5110564;28;20618;-79
2022/10/18 08:18:36;;;;;;;13.50;5.78;;;25.90;98.90;;;;;;5109473;28;20190;-79
2022/10/18 08:21:04;;;;;;;15.05;6.07;;;26.00;98.20;;;;;;5110209;28;20205;-78
2022/10/18 08:23:30;;;;;;;9.13;4.93;;;26.30;97.90;;;;;;5100564;28;20702;-80
2022/10/18 08:25:55;;;;;;;8.70;4.25;;;25.40;98.20;;;;;;5097608;28;20274;-79
2022/10/18 08:28:21;;;;;;;12.73;4.70;;;24.90;99.90;;;;;;5104784;28;20238;-80
2022/10/18 08:30:47;;;;;;;9.20;4.55;;;25.60;99.40;;;;;;5098316;28;20175;-78
2022/10/18 08:33:12;;;;;;;15.07;5.53;;;25.90;98.60;;;;;;5130928;27;20278;-84
2022/10/18 08:35:38;;;;;;;11.82;4.57;;;26.90;96.70;;;;;;5138956;27;20167;-80
2022/10/18 08:38:04;;;;;;;7.97;4.30;;;27.30;95.00;;;;;;5119976;27;20403;-80
2022/10/18 08:40:32;;;;;;;13.50;4.53;;;27.30;94.90;;;;;;5117912;28;20163;-81
2022/10/18 08:43:21;;;;;;;8.38;4.60;;;27.50;92.70;;;;;;5132670;27;20189;-82
2022/10/18 08:45:50;;;;;;;9.88;4.10;;;26.40;94.20;;;;;;5117934;27;20186;-78
2022/10/18 08:48:40;;;;;;;11.82;3.95;;;25.40;97.20;;;;;;5132393;27;20238;-79
2022/10/18 08:51:31;;;;;;;8.60;4.20;;;25.80;97.10;;;;;;5122734;27;20209;-82
2022/10/18 08:54:13;;;;;;;11.55;4.28;;;26.70;95.10;;;;;;5096921;28;20236;-79
2022/10/18 08:56:44;;;;;;;13.02;4.93;;;26.50;94.00;;;;;;5132513;27;20684;-78
2022/10/18 08:59:12;;;;;;;11.52;5.30;;;25.90;96.00;;;;;;5128520;27;20183;-80
2022/10/18 09:01:45;;;;;;;16.63;5.97;;;27.20;94.60;;;;;;5131574;27;20632;-81
2022/10/18 09:04:20;;;;;;;12.82;6.07;;;27.70;92.30;;;;;;5124833;27;20171;-80
2022/10/18 09:07:11;;;;;;;17.55;6.03;;;27.30;92.20;;;;;;5125753;27;20214;-77
2022/10/18 09:10:02;;;;;;;13.70;5.80;;;26.30;95.00;;;;;;5132154;27;20177;-76
2022/10/18 09:12:49;;;;;;;15.38;7.47;;;25.80;96.40;;;;;;5129314;27;20203;-78
2022/10/18 09:15:14;;;;;;;19.67;8.55;;;26.70;96.30;;;;;;5121323;27;20172;-78
2022/10/18 09:17:57;;;;;;;14.27;6.88;;;28.10;93.90;;;;;;5135261;27;20739;-76
2022/10/18 09:20:26;;;;;;;13.13;6.10;;;28.60;92.00;;;;;;5127494;27;20186;-82
2022/10/18 09:22:54;;;;;;;13.00;6.93;;;28.20;93.00;;;;;;5127149;27;20532;-78
2022/10/18 09:25:28;;;;;;;20.08;6.85;;;28.40;91.50;;;;;;5131750;27;20177;-78
2022/10/18 09:28:00;;;;;;;10.45;5.97;;;28.10;91.90;;;;;;5125652;27;20270;-78
2022/10/18 09:30:36;;;;;;;14.45;5.50;;;28.50;90.90;;;;;;5137445;27;20281;-81
2022/10/18 09:33:29;;;;;;;13.07;5.72;;;28.70;90.40;;;;;;5135621;27;20642;-83
2022/10/18 09:36:04;;;;;;;12.38;5.90;;;27.80;91.30;;;;;;5116843;27;20560;-80
2022/10/18 09:38:55;;;;;;;10.52;5.57;;;26.90;93.20;;;;;;5121576;27;20192;-82
2022/10/18 09:41:27;;;;;;;12.75;6.10;;;26.80;93.60;;;;;;5119550;27;20240;-79
2022/10/18 09:44:05;;;;;;;18.40;6.03;;;27.60;92.90;;;;;;5124476;27;20240;-80
2022/10/18 09:46:36;;;;;;;12.88;5.75;;;28.30;90.80;;;;;;5117442;28;20175;-83
2022/10/18 09:49:12;;;;;;;10.63;6.25;;;28.40;1.00;;;;;;5132566;27;20186;-78
2022/10/18 09:51:40;;;;;;;10.10;5.57;;;28.80;1.00;;;;;;5135945;27;20170;-82
2022/10/18 09:54:30;;;;;;;10.93;5.53;;;29.50;1.00;;;;;;5134750;27;20215;-80
2022/10/18 09:57:30;;;;;;;9.45;5.30;;;29.50;1.00;;;;;;5135321;27;20795;-83
2022/10/18 09:59:57;;;;;;;9.30;5.40;;;29.40;1.00;;;;;;5136064;27;20587;-80
2022/10/18 10:02:23;;;;;;;17.75;5.60;;;28.50;1.00;;;;;;5135167;27;20195;-82
2022/10/18 10:04:50;;;;;;;10.80;5.85;;;28.40;1.00;;;;;;5134952;27;20542;-84
2022/10/18 10:07:18;;;;;;;10.43;5.13;;;28.80;1.00;;;;;;5135058;27;20167;-83
2022/10/18 10:09:47;;;;;;;11.10;4.80;;;29.30;1.00;;;;;;5135588;27;20174;-85
2022/10/18 10:12:28;;;;;;;11.15;5.72;;;29.90;99.90;;;;;;5135856;27;20514;-82
2022/10/18 10:14:54;;;;;;;16.83;6.38;;;30.30;99.90;;;;;;5112427;27;20179;-80
2022/10/18 10:17:25;;;;;;;16.40;6.70;;;30.20;99.90;;;;;;5117084;27;20210;-79
2022/10/18 10:20:02;;;;;;;12.82;6.43;;;30.40;99.90;;;;;;5114445;28;20179;-79
2022/10/18 10:22:48;;;;;;;12.73;6.07;;;30.00;99.90;;;;;;5114481;28;20163;-80
2022/10/18 10:25:31;;;;;;;11.57;5.80;;;29.50;99.90;;;;;;5114253;28;20216;-79
2022/10/18 10:28:03;;;;;;;18.05;6.30;;;28.10;1.00;;;;;;5132550;27;20251;-84
2022/10/18 10:30:34;;;;;;;17.63;6.18;;;26.70;99.90;;;;;;5116425;27;20166;-82
2022/10/18 10:33:01;;;;;;;15.05;6.53;;;25.90;91.90;;;;;;5134587;27;20313;-83
2022/10/18 10:35:31;;;;;;;15.55;5.95;;;25.50;93.40;;;;;;5135266;27;20171;-82
2022/10/18 10:37:57;;;;;;;12.80;5.72;;;26.00;92.80;;;;;;5134747;27;20198;-88
2022/10/18 10:40:30;;;;;;;14.68;5.70;;;26.10;93.80;;;;;;5134070;27;20570;-82
2022/10/18 10:43:08;;;;;;;18.13;6.15;;;26.40;92.70;;;;;;5134635;27;20176;-84
2022/10/18 10:45:55;;;;;;;13.75;4.75;;;27.10;99.90;;;;;;5134439;27;20199;-80
2022/10/18 10:48:22;;;;;;;14.70;5.05;;;26.50;99.90;;;;;;5134331;27;20614;-86
2022/10/18 10:51:02;;;;;;;11.73;4.85;;;25.70;93.50;;;;;;5116114;27;20170;-88
2022/10/18 10:53:31;;;;;;;15.63;6.00;;;26.50;92.10;;;;;;5136550;27;20171;-86
2022/10/18 10:55:58;;;;;;;14.82;5.70;;;27.20;99.90;;;;;;5121281;27;20186;-87
2022/10/18 10:58:26;;;;;;;16.75;4.68;;;27.80;1.00;;;;;;5119715;27;20560;-87
2022/10/18 11:00:52;;;;;;;13.10;4.32;;;28.10;1.00;;;;;;5136271;27;20166;-88
2022/10/18 11:03:20;;;;;;;15.45;4.10;;;28.60;1.00;;;;;;5116783;27;20643;-88
2022/10/18 11:05:48;;;;;;;11.90;3.65;;;26.60;39.20;;;;;;5134980;27;20250;-86
2022/10/18 11:08:23;;;;;;;10.32;3.55;;;26.80;1.00;;;;;;5134868;27;20630;-85
2022/10/18 11:11:10;;;;;;;8.77;3.53;;;26.40;1.00;;;;;;5133857;27;20234;-80
2022/10/18 11:14:04;;;;;;;11.38;3.40;;;26.00;1.60;;;;;;5122555;27;20182;-78
2022/10/18 11:16:38;;;;;;;13.00;3.50;;;24.90;99.90;;;;;;5104628;27;20712;-81
2022/10/18 11:19:18;;;;;;;8.02;4.18;;;25.10;99.90;;;;;;5115347;27;20269;-82
2022/10/18 11:21:44;;;;;;;8.15;2.90;;;26.20;1.00;;;;;;5111769;27;20167;-83
2022/10/18 11:24:15;;;;;;;7.88;2.95;;;26.40;1.00;;;;;;5132064;27;20531;-82
2022/10/18 11:26:56;;;;;;;8.52;3.33;;;25.50;1.00;;;;;;5132772;27;20174;-79
2022/10/18 11:29:37;;;;;;;6.95;2.80;;;25.80;1.00;;;;;;5133608;27;20524;-81
2022/10/18 11:32:53;;;;;;;9.45;2.85;;;25.90;1.00;;;;;;5105603;28;20248;-87
2022/10/18 11:35:45;;;;;;;8.00;3.50;;;26.30;1.00;;;;;;5106784;28;20230;-85
2022/10/18 11:38:20;;;;;;;10.27;3.95;;;26.60;1.00;;;;;;5105405;28;20252;-86
2022/10/18 11:41:12;;;;;;;13.15;3.47;;;25.00;1.00;;;;;;5104764;28;20171;-82
2022/10/18 11:43:58;;;;;;;7.03;2.35;;;25.50;1.00;;;;;;5097318;28;20270;-83
2022/10/18 11:46:51;;;;;;;6.45;2.60;;;25.50;1.00;;;;;;5097584;28;20167;-83
2022/10/18 11:49:35;;;;;;;8.13;3.03;;;25.50;1.00;;;;;;5109832;28;20178;-84
2022/10/18 11:52:14;;;;;;;9.15;2.65;;;26.10;1.00;;;;;;5107415;28;20265;-82
2022/10/18 11:55:07;;;;;;;3.75;2.22;;;26.30;1.00;;;;;;5105935;28;20196;-84
2022/10/18 11:57:54;;;;;;;11.02;2.80;;;26.70;1.00;;;;;;5105144;28;20209;-83
2022/10/18 12:00:39;;;;;;;8.60;2.80;;;27.00;1.00;;;;;;5098903;28;20207;-82
2022/10/18 12:03:14;;;;;;;9.30;3.20;;;25.10;1.00;;;;;;5104755;28;20203;-82
2022/10/18 12:05:43;;;;;;;11.20;4.72;;;24.10;1.00;;;;;;5111264;28;20170;-82
2022/10/18 12:08:32;;;;;;;9.13;4.65;;;23.30;92.40;;;;;;5100941;28;20280;-81
2022/10/18 12:11:01;;;;;;;9.82;3.78;;;23.20;92.60;;;;;;5110005;28;20175;-82
2022/10/18 12:13:39;;;;;;;7.05;2.72;;;23.50;95.00;;;;;;5105535;28;20183;-82
2022/10/18 12:16:07;;;;;;;8.05;2.80;;;23.60;99.90;;;;;;5105057;28;20222;-83
2022/10/18 12:18:34;;;;;;;9.38;3.17;;;23.40;99.90;;;;;;5103437;28;20199;-80
2022/10/18 12:21:01;;;;;;;8.27;3.38;;;23.30;50.00;;;;;;5105178;28;20724;-81
2022/10/18 12:23:50;;;;;;;7.10;2.60;;;23.50;99.90;;;;;;5099315;28;20600;-80
2022/10/18 12:26:16;;;;;;;9.07;4.50;;;23.40;99.90;;;;;;5098273;28;20163;-84
2022/10/18 12:29:06;;;;;;;14.25;4.47;;;23.10;1.00;;;;;;5101078;28;20195;-80
2022/10/18 12:31:51;;;;;;;10.55;4.93;;;23.00;1.00;;;;;;5109220;28;20798;-81
2022/10/18 12:34:22;;;;;;;9.98;2.80;;;23.00;1.00;;;;;;5117773;28;20183;-82
2022/10/18 12:36:51;;;;;;;10.20;3.22;;;22.70;1.00;;;;;;5124720;28;20210;-81
2022/10/18 12:39:29;;;;;;;12.07;4.88;;;22.30;1.00;;;;;;5118632;28;20416;-79
2022/10/18 12:41:55;;;;;;;10.73;3.72;;;22.70;97.10;;;;;;5114288;28;20186;-79
2022/10/18 12:44:25;;;;;;;8.88;2.88;;;22.60;99.90;;;;;;5131595;28;20211;-80
2022/10/18 12:46:54;;;;;;;10.48;3.00;;;22.10;1.00;;;;;;5121259;28;20167;-81
2022/10/18 12:49:30;;;;;;;5.50;2.40;;;21.80;1.00;;;;;;5111623;28;20168;-79
2022/10/18 12:51:59;;;;;;;11.15;2.92;;;21.60;1.00;;;;;;5116656;28;20269;-79
2022/10/18 12:54:37;;;;;;;7.88;2.35;;;21.70;1.00;;;;;;5132051;28;20261;-81